createdAt,value
2023-05-15T00:01:19.919Z,70.48
2023-05-15T00:03:46.666Z,69.61
2023-05-15T00:06:13.339Z,68.93
2023-05-15T00:08:40.537Z,68.93
2023-05-15T00:11:07.121Z,68.72
2023-05-15T00:13:34.304Z,68.16
2023-05-15T00:16:00.954Z,68.01
2023-05-15T00:18:27.671Z,67.85
2023-05-15T00:20:54.552Z,67.57
2023-05-15T00:23:21.116Z,68.20
2023-05-15T00:25:47.698Z,67.54
2023-05-15T00:28:14.295Z,67.66
2023-05-15T00:30:40.885Z,67.46
2023-05-15T00:33:07.482Z,67.31
2023-05-15T00:35:34.043Z,66.91
2023-05-15T00:38:01.312Z,67.04
2023-05-15T00:40:27.925Z,67.30
2023-05-15T00:42:54.507Z,67.20
2023-05-15T00:45:21.077Z,67.43
2023-05-15T00:47:47.721Z,67.29
2023-05-15T00:50:14.309Z,67.33
2023-05-15T00:52:40.898Z,67.16
2023-05-15T00:55:07.502Z,67.05
2023-05-15T00:57:34.097Z,66.91
2023-05-15T01:00:00.669Z,66.77
2023-05-15T01:02:27.325Z,66.76
2023-05-15T01:04:54.314Z,66.79
2023-05-15T01:07:23.246Z,66.50
2023-05-15T01:09:49.905Z,66.88
2023-05-15T01:12:16.475Z,67.53
2023-05-15T01:14:43.830Z,67.00
2023-05-15T01:17:10.391Z,66.83
2023-05-15T01:19:37.190Z,66.50
2023-05-15T01:22:03.845Z,66.52
2023-05-15T01:24:30.433Z,66.75
2023-05-15T01:26:57.075Z,66.70
2023-05-15T01:29:23.641Z,66.55
2023-05-15T01:31:50.342Z,66.60
2023-05-15T01:34:16.975Z,66.65
2023-05-15T01:36:43.572Z,66.69
2023-05-15T01:39:10.154Z,66.19
2023-05-15T01:41:36.755Z,66.25
2023-05-15T01:44:03.641Z,66.42
2023-05-15T01:46:31.207Z,66.79
2023-05-15T01:48:58.052Z,66.73
2023-05-15T01:51:24.623Z,66.88
2023-05-15T01:53:51.238Z,67.47
2023-05-15T01:56:17.799Z,67.75
2023-05-15T01:58:44.404Z,67.60
2023-05-15T02:01:11.616Z,67.23
2023-05-15T02:03:38.277Z,66.76
2023-05-15T02:06:04.967Z,67.32
2023-05-15T02:08:31.519Z,66.89
2023-05-15T02:10:58.084Z,66.75
2023-05-15T02:13:24.679Z,66.55
2023-05-15T02:15:51.349Z,66.45
2023-05-15T02:18:17.950Z,66.34
2023-05-15T02:20:44.561Z,66.47
2023-05-15T02:23:11.140Z,67.13
2023-05-15T02:25:37.735Z,66.73
2023-05-15T02:28:04.298Z,66.53
2023-05-15T02:30:30.870Z,66.57
2023-05-15T02:32:57.530Z,66.98
2023-05-15T02:35:26.818Z,66.73
2023-05-15T02:37:53.659Z,66.93
2023-05-15T02:40:20.209Z,66.68
2023-05-15T02:42:46.788Z,66.56
2023-05-15T02:45:13.336Z,66.06
2023-05-15T02:47:39.999Z,66.41
2023-05-15T02:50:06.593Z,66.07
2023-05-15T02:52:33.161Z,65.78
2023-05-15T02:54:59.742Z,66.11
2023-05-15T02:57:26.296Z,66.01
2023-05-15T02:59:52.885Z,65.87
2023-05-15T03:02:20.153Z,66.37
2023-05-15T03:04:48.040Z,66.06
2023-05-15T03:07:15.130Z,66.50
2023-05-15T03:09:42.652Z,66.47
2023-05-15T03:12:09.234Z,66.14
2023-05-15T03:14:35.804Z,65.90
2023-05-15T03:17:02.609Z,65.99
2023-05-15T03:19:29.209Z,65.66
2023-05-15T03:21:55.798Z,66.69
2023-05-15T03:24:22.388Z,67.01
2023-05-15T03:26:48.941Z,67.43
2023-05-15T03:29:15.522Z,67.39
2023-05-15T03:31:42.127Z,66.86
2023-05-15T03:34:08.718Z,66.56
2023-05-15T03:36:35.299Z,66.29
2023-05-15T03:39:01.870Z,65.82
2023-05-15T03:41:28.444Z,65.98
2023-05-15T03:43:55.001Z,66.27
2023-05-15T03:46:21.623Z,66.35
2023-05-15T03:48:48.238Z,66.26
2023-05-15T03:51:14.805Z,66.56
2023-05-15T03:53:43.709Z,66.71
2023-05-15T03:56:10.360Z,66.59
2023-05-15T03:58:37.035Z,66.70
2023-05-15T04:01:03.644Z,66.58
2023-05-15T04:03:30.252Z,66.28
2023-05-15T04:05:56.946Z,66.44
2023-05-15T04:08:23.523Z,65.63
2023-05-15T04:10:50.799Z,65.60
2023-05-15T04:13:17.369Z,65.60
2023-05-15T04:15:43.996Z,65.86
2023-05-15T04:18:10.554Z,65.56
2023-05-15T04:20:37.147Z,65.86
2023-05-15T04:23:03.710Z,65.82
2023-05-15T04:25:30.305Z,65.85
2023-05-15T04:27:57.078Z,65.86
2023-05-15T04:30:24.204Z,66.43
2023-05-15T04:32:50.897Z,66.23
2023-05-15T04:35:17.516Z,66.09
2023-05-15T04:37:46.189Z,66.01
2023-05-15T04:40:12.782Z,65.68
2023-05-15T04:42:39.758Z,65.69
2023-05-15T04:45:06.455Z,65.23
2023-05-15T04:47:33.125Z,65.23
2023-05-15T04:49:59.707Z,65.08
2023-05-15T04:52:26.293Z,64.96
2023-05-15T04:54:52.908Z,64.97
2023-05-15T04:57:19.758Z,64.67
2023-05-15T04:59:46.342Z,64.47
2023-05-15T05:02:12.895Z,63.69
2023-05-15T05:04:40.221Z,62.84
2023-05-15T05:07:06.790Z,63.97
2023-05-15T05:09:34.545Z,64.64
2023-05-15T05:12:01.148Z,64.41
2023-05-15T05:14:27.734Z,64.25
2023-05-15T05:16:54.324Z,63.99
2023-05-15T05:19:21.824Z,63.16
2023-05-15T05:21:48.590Z,63.89
2023-05-15T05:24:15.247Z,63.83
2023-05-15T05:26:41.865Z,64.03
2023-05-15T05:29:08.425Z,63.84
2023-05-15T05:31:35.063Z,63.78
2023-05-15T05:34:03.869Z,64.57
2023-05-15T05:36:30.512Z,63.60
2023-05-15T05:38:58.690Z,62.74
2023-05-15T05:41:25.281Z,61.36
2023-05-15T05:43:52.066Z,61.27
2023-05-15T05:46:18.742Z,60.44
2023-05-15T05:48:45.374Z,60.29
2023-05-15T05:51:11.930Z,60.93
2023-05-15T05:53:39.575Z,60.73
2023-05-15T05:56:06.263Z,59.62
2023-05-15T05:58:32.817Z,59.83
2023-05-15T06:00:59.402Z,59.45
2023-05-15T06:03:26.277Z,58.27
2023-05-15T06:05:52.926Z,57.86
2023-05-15T06:08:19.543Z,57.87
2023-05-15T06:10:46.142Z,59.00
2023-05-15T06:13:13.035Z,58.73
2023-05-15T06:15:42.668Z,60.91
2023-05-15T06:18:09.297Z,59.41
2023-05-15T06:20:35.923Z,57.76
2023-05-15T06:23:02.520Z,58.58
2023-05-15T06:25:29.112Z,58.60
2023-05-15T06:27:55.718Z,58.08
2023-05-15T06:30:23.264Z,58.70
2023-05-15T06:32:49.967Z,58.10
2023-05-15T06:35:16.610Z,57.21
2023-05-15T06:37:43.614Z,56.77
2023-05-15T06:40:10.188Z,57.01
2023-05-15T06:42:36.795Z,56.18
2023-05-15T06:45:03.395Z,55.28
2023-05-15T06:47:30.065Z,55.71
2023-05-15T06:49:56.673Z,55.69
2023-05-15T06:52:23.271Z,54.59
2023-05-15T06:54:49.873Z,53.83
2023-05-15T06:57:16.457Z,53.70
2023-05-15T06:59:43.017Z,53.79
2023-05-15T07:02:09.659Z,54.24
2023-05-15T07:04:36.326Z,53.73
2023-05-15T07:07:02.954Z,53.99
2023-05-15T07:09:29.678Z,53.81
2023-05-15T07:11:56.266Z,53.93
2023-05-15T07:14:22.865Z,53.44
2023-05-15T07:16:49.537Z,54.34
2023-05-15T07:19:16.205Z,54.30
2023-05-15T07:21:42.791Z,53.15
2023-05-15T07:24:09.366Z,52.63
2023-05-15T07:26:43.863Z,51.80
2023-05-15T07:29:17.171Z,52.56
2023-05-15T07:31:43.769Z,51.73
2023-05-15T07:34:10.880Z,52.01
2023-05-15T07:36:37.530Z,52.68
2023-05-15T07:39:04.105Z,50.83
2023-05-15T07:41:30.788Z,50.46
2023-05-15T07:43:57.678Z,51.23
2023-05-15T07:46:24.339Z,51.18
2023-05-15T07:48:51.050Z,49.39
2023-05-15T07:51:17.654Z,49.10
2023-05-15T07:53:44.238Z,50.05
2023-05-15T07:56:10.828Z,50.24
2023-05-15T07:58:37.387Z,48.44
2023-05-15T08:01:04.290Z,47.99
2023-05-15T08:03:31.005Z,49.05
2023-05-15T08:05:57.638Z,50.37
2023-05-15T08:08:24.214Z,48.13
2023-05-15T08:10:50.772Z,47.74
2023-05-15T08:13:17.356Z,48.20
2023-05-15T08:15:43.987Z,49.41
2023-05-15T08:18:10.770Z,49.96
2023-05-15T08:20:37.342Z,47.79
2023-05-15T08:23:03.880Z,47.85
2023-05-15T08:25:30.713Z,47.84
2023-05-15T08:27:57.472Z,46.51
2023-05-15T08:30:24.069Z,45.58
2023-05-15T08:32:50.889Z,45.73
2023-05-15T08:35:17.498Z,46.01
2023-05-15T08:37:45.380Z,45.82
2023-05-15T08:40:11.964Z,47.40
2023-05-15T08:42:38.567Z,45.46
2023-05-15T08:45:05.189Z,45.51
2023-05-15T08:47:31.814Z,43.73
2023-05-15T08:49:58.438Z,44.06
2023-05-15T08:52:24.998Z,42.72
2023-05-15T08:54:51.572Z,43.61
2023-05-15T08:57:18.178Z,44.84
2023-05-15T08:59:44.760Z,44.24
2023-05-15T09:02:11.385Z,44.81
2023-05-15T09:04:38.985Z,45.09
2023-05-15T09:07:06.029Z,42.40
2023-05-15T09:09:32.610Z,41.89
2023-05-15T09:11:59.185Z,42.20
2023-05-15T09:14:26.097Z,40.00
2023-05-15T09:16:52.743Z,41.28
2023-05-15T09:19:20.927Z,39.95
2023-05-15T09:21:48.017Z,39.96
2023-05-15T09:24:14.663Z,41.55
2023-05-15T09:26:41.270Z,40.68
2023-05-15T09:29:07.836Z,39.49
2023-05-15T09:31:34.788Z,39.26
2023-05-15T09:34:01.713Z,38.34
2023-05-15T09:36:28.322Z,41.63
2023-05-15T09:38:54.955Z,40.29
2023-05-15T09:41:21.650Z,42.94
2023-05-15T09:43:48.214Z,41.40
2023-05-15T09:46:15.176Z,40.56
2023-05-15T09:48:41.795Z,40.23
2023-05-15T09:51:08.414Z,40.49
2023-05-15T09:53:35.009Z,40.49
2023-05-15T09:56:01.742Z,40.35
2023-05-15T09:58:28.346Z,40.90
2023-05-15T10:00:56.175Z,39.56
2023-05-15T10:03:22.736Z,38.84
2023-05-15T10:05:49.478Z,39.16
2023-05-15T10:08:16.723Z,41.45
2023-05-15T10:10:43.359Z,39.83
2023-05-15T10:13:09.986Z,38.37
2023-05-15T10:15:36.558Z,38.77
2023-05-15T10:18:03.198Z,39.51
2023-05-15T10:20:29.807Z,37.97
2023-05-15T10:22:56.425Z,36.64
2023-05-15T10:25:23.013Z,38.49
2023-05-15T10:27:49.590Z,39.79
2023-05-15T10:30:16.212Z,38.91
2023-05-15T10:32:42.916Z,41.01
2023-05-15T10:35:09.512Z,39.07
2023-05-15T10:37:36.083Z,40.07
2023-05-15T10:40:02.832Z,40.02
2023-05-15T10:42:29.405Z,38.82
2023-05-15T10:44:55.966Z,37.42
2023-05-15T10:47:22.625Z,37.38
2023-05-15T10:49:49.227Z,35.76
2023-05-15T10:52:15.801Z,36.36
2023-05-15T10:54:42.380Z,36.80
2023-05-15T10:57:09.682Z,35.54
2023-05-15T10:59:36.265Z,36.28
2023-05-15T11:02:02.840Z,36.71
2023-05-15T11:04:29.447Z,34.83
2023-05-15T11:06:56.051Z,35.38
2023-05-15T11:09:27.160Z,35.92
2023-05-15T11:11:54.418Z,35.14
2023-05-15T11:14:20.995Z,35.47
2023-05-15T11:16:47.585Z,33.70
2023-05-15T11:19:14.523Z,33.74
2023-05-15T11:21:41.191Z,34.68
2023-05-15T11:24:07.765Z,33.04
2023-05-15T11:26:34.367Z,35.11
2023-05-15T11:29:00.964Z,35.53
2023-05-15T11:31:27.602Z,34.49
2023-05-15T11:33:54.191Z,34.85
2023-05-15T11:36:21.037Z,33.68
2023-05-15T11:38:47.594Z,33.18
2023-05-15T11:41:14.183Z,33.81
2023-05-15T11:43:40.798Z,34.39
2023-05-15T11:46:07.530Z,34.72
2023-05-15T11:48:34.215Z,32.77
2023-05-15T11:51:00.821Z,32.55
2023-05-15T11:53:27.929Z,33.87
2023-05-15T11:55:54.604Z,31.83
2023-05-15T11:58:21.237Z,32.05
2023-05-15T12:00:47.835Z,32.30
2023-05-15T12:03:14.462Z,31.54
2023-05-15T12:05:50.303Z,31.78
2023-05-15T12:08:24.552Z,31.10
2023-05-15T12:10:51.154Z,31.45
2023-05-15T12:13:17.700Z,29.95
2023-05-15T12:15:44.404Z,29.91
2023-05-15T12:18:12.120Z,30.35
2023-05-15T12:20:38.706Z,30.55
2023-05-15T12:23:05.294Z,31.49
2023-05-15T12:25:31.931Z,30.48
2023-05-15T12:27:58.525Z,31.75
2023-05-15T12:30:25.207Z,31.31
2023-05-15T12:32:52.037Z,32.65
2023-05-15T12:35:18.668Z,31.54
2023-05-15T12:37:45.266Z,33.93
2023-05-15T12:40:11.963Z,33.05
2023-05-15T12:42:38.750Z,31.68
2023-05-15T12:45:05.306Z,31.25
2023-05-15T12:47:31.926Z,31.28
2023-05-15T12:49:59.039Z,31.56
2023-05-15T12:52:25.863Z,33.46
2023-05-15T12:54:52.482Z,31.04
2023-05-15T12:57:19.034Z,33.27
2023-05-15T12:59:45.628Z,32.27
2023-05-15T13:02:12.208Z,31.79
2023-05-15T13:04:38.771Z,33.01
2023-05-15T13:07:05.600Z,33.19
2023-05-15T13:09:33.551Z,34.31
2023-05-15T13:12:00.145Z,33.42
2023-05-15T13:14:26.753Z,32.99
2023-05-15T13:16:53.345Z,33.45
2023-05-15T13:19:19.969Z,32.22
2023-05-15T13:21:46.626Z,33.69
2023-05-15T13:24:13.172Z,32.83
2023-05-15T13:26:40.105Z,33.10
2023-05-15T13:29:06.710Z,33.25
2023-05-15T13:31:33.344Z,33.70
2023-05-15T13:33:59.994Z,32.49
2023-05-15T13:36:26.667Z,33.27
2023-05-15T13:38:53.863Z,32.80
2023-05-15T13:41:20.463Z,33.65
2023-05-15T13:43:47.045Z,34.18
2023-05-15T13:46:13.818Z,32.50
2023-05-15T13:48:40.480Z,32.97
2023-05-15T13:51:07.058Z,32.12
2023-05-15T13:53:33.667Z,32.02
2023-05-15T13:56:00.285Z,32.09
2023-05-15T13:58:26.939Z,32.04
2023-05-15T14:00:53.575Z,30.80
2023-05-15T14:03:20.314Z,31.36
2023-05-15T14:05:47.221Z,31.48
2023-05-15T14:08:13.825Z,31.63
2023-05-15T14:10:40.385Z,31.25
2023-05-15T14:13:06.969Z,31.51
2023-05-15T14:15:33.545Z,31.14
2023-05-15T14:18:00.215Z,30.03
2023-05-15T14:20:27.123Z,30.11
2023-05-15T14:22:53.846Z,31.80
2023-05-15T14:25:20.448Z,31.86
2023-05-15T14:27:47.011Z,31.32
2023-05-15T14:30:13.623Z,31.73
2023-05-15T14:32:40.234Z,32.40
2023-05-15T14:35:06.824Z,32.34
2023-05-15T14:37:33.435Z,32.92
2023-05-15T14:40:00.003Z,32.74
2023-05-15T14:42:26.638Z,33.59
2023-05-15T14:44:53.293Z,34.34
2023-05-15T14:47:19.875Z,33.63
2023-05-15T14:49:46.428Z,33.66
2023-05-15T14:52:13.059Z,33.88
2023-05-15T14:54:40.220Z,33.78
2023-05-15T14:57:06.896Z,34.13
2023-05-15T14:59:33.587Z,33.98
2023-05-15T15:02:00.340Z,33.02
2023-05-15T15:04:27.083Z,33.47
2023-05-15T15:06:53.801Z,34.11
2023-05-15T15:09:21.434Z,33.48
2023-05-15T15:11:48.313Z,33.07
2023-05-15T15:14:14.898Z,31.30
2023-05-15T15:16:41.668Z,30.66
2023-05-15T15:19:08.358Z,30.64
2023-05-15T15:21:35.107Z,31.59
2023-05-15T15:24:01.895Z,30.73
2023-05-15T15:26:28.509Z,31.53
2023-05-15T15:28:55.083Z,32.03
2023-05-15T15:31:21.753Z,33.92
2023-05-15T15:33:49.667Z,33.05
2023-05-15T15:36:16.389Z,33.00
2023-05-15T15:38:42.946Z,32.78
2023-05-15T15:41:09.528Z,33.69
2023-05-15T15:43:36.128Z,33.47
2023-05-15T15:46:02.868Z,33.33
2023-05-15T15:48:29.603Z,33.33
2023-05-15T15:50:56.223Z,33.90
2023-05-15T15:53:24.104Z,33.91
2023-05-15T15:55:50.735Z,33.83
2023-05-15T15:58:17.354Z,33.60
2023-05-15T16:00:43.909Z,36.25
2023-05-15T16:03:10.579Z,34.57
2023-05-15T16:05:37.254Z,34.83
2023-05-15T16:08:03.829Z,38.02
2023-05-15T16:10:31.071Z,39.87
2023-05-15T16:12:57.781Z,39.99
2023-05-15T16:15:35.493Z,40.52
2023-05-15T16:18:02.309Z,42.12
2023-05-15T16:20:34.926Z,40.66
2023-05-15T16:23:03.235Z,38.94
2023-05-15T16:25:29.831Z,37.07
2023-05-15T16:27:56.397Z,35.82
2023-05-15T16:30:28.228Z,35.87
2023-05-15T16:33:00.637Z,34.95
2023-05-15T16:35:27.289Z,34.33
2023-05-15T16:37:53.862Z,37.41
2023-05-15T16:40:20.445Z,38.30
2023-05-15T16:42:47.083Z,38.78
2023-05-15T16:45:13.652Z,38.99
2023-05-15T16:47:40.274Z,38.74
2023-05-15T16:50:06.854Z,36.86
2023-05-15T16:52:33.442Z,35.27
2023-05-15T16:55:00.052Z,35.19
2023-05-15T16:57:26.654Z,34.70
2023-05-15T16:59:53.357Z,33.26
2023-05-15T17:02:19.962Z,34.09
2023-05-15T17:04:46.580Z,33.67
2023-05-15T17:07:13.202Z,33.88
2023-05-15T17:09:39.852Z,34.87
2023-05-15T17:12:06.519Z,34.50
2023-05-15T17:14:33.290Z,35.91
2023-05-15T17:16:59.957Z,35.41
2023-05-15T17:19:26.526Z,35.72
2023-05-15T17:21:53.181Z,35.82
2023-05-15T17:24:19.759Z,35.57
2023-05-15T17:26:46.413Z,36.45
2023-05-15T17:29:13.006Z,35.94
2023-05-15T17:31:39.616Z,36.47
2023-05-15T17:34:06.233Z,35.88
2023-05-15T17:36:32.962Z,36.15
2023-05-15T17:38:59.844Z,36.37
2023-05-15T17:41:26.469Z,36.90
2023-05-15T17:43:53.056Z,37.23
2023-05-15T17:46:20.101Z,37.54
2023-05-15T17:48:46.758Z,36.09
2023-05-15T17:51:13.324Z,37.61
2023-05-15T17:53:39.914Z,38.56
2023-05-15T17:56:06.525Z,39.08
2023-05-15T17:58:33.076Z,39.79
2023-05-15T18:00:59.669Z,40.90
2023-05-15T18:03:26.305Z,41.17
2023-05-15T18:05:53.057Z,40.45
2023-05-15T18:08:19.723Z,41.31
2023-05-15T18:10:46.296Z,41.62
2023-05-15T18:13:12.890Z,41.92
2023-05-15T18:15:39.520Z,42.20
2023-05-15T18:18:06.226Z,42.25
2023-05-15T18:20:32.867Z,42.75
2023-05-15T18:22:59.464Z,43.13
2023-05-15T18:25:26.708Z,42.61
2023-05-15T18:27:53.584Z,42.70
2023-05-15T18:30:20.177Z,43.37
2023-05-15T18:32:46.785Z,44.02
2023-05-15T18:35:13.379Z,43.99
2023-05-15T18:37:39.943Z,44.80
2023-05-15T18:40:06.522Z,45.29
2023-05-15T18:42:33.334Z,45.45
2023-05-15T18:45:00.135Z,44.92
2023-05-15T18:47:26.786Z,45.87
2023-05-15T18:49:53.374Z,45.98
2023-05-15T18:52:20.171Z,46.90
2023-05-15T18:54:46.740Z,47.60
2023-05-15T18:57:13.317Z,47.45
2023-05-15T18:59:39.907Z,47.48
2023-05-15T19:02:06.487Z,48.55
2023-05-15T19:04:33.395Z,48.13
2023-05-15T19:06:59.952Z,48.28
2023-05-15T19:09:26.572Z,48.15
2023-05-15T19:11:53.124Z,47.78
2023-05-15T19:14:19.708Z,48.78
2023-05-15T19:16:46.401Z,49.52
2023-05-15T19:19:13.149Z,51.03
2023-05-15T19:21:42.083Z,49.46
2023-05-15T19:24:08.690Z,48.97
2023-05-15T19:26:35.261Z,48.87
2023-05-15T19:29:01.859Z,49.28
2023-05-15T19:31:32.031Z,49.33
2023-05-15T19:33:58.950Z,49.29
2023-05-15T19:36:25.526Z,49.76
2023-05-15T19:38:52.079Z,50.12
2023-05-15T19:41:18.761Z,50.43
2023-05-15T19:43:45.521Z,51.17
2023-05-15T19:46:12.517Z,52.47
2023-05-15T19:48:39.113Z,52.20
2023-05-15T19:51:05.715Z,51.77
2023-05-15T19:53:32.310Z,51.91
2023-05-15T19:55:58.873Z,52.02
2023-05-15T19:58:25.461Z,52.39
2023-05-15T20:00:52.258Z,52.82
2023-05-15T20:03:18.939Z,52.95
2023-05-15T20:05:45.528Z,52.95
2023-05-15T20:08:12.127Z,52.48
2023-05-15T20:10:38.832Z,52.63
2023-05-15T20:13:05.617Z,52.35
2023-05-15T20:15:32.274Z,52.45
2023-05-15T20:17:58.893Z,52.94
2023-05-15T20:20:27.850Z,52.29
2023-05-15T20:22:54.601Z,52.69
2023-05-15T20:25:22.926Z,52.85
2023-05-15T20:27:50.750Z,53.33
2023-05-15T20:30:17.611Z,53.94
2023-05-15T20:32:44.358Z,53.49
2023-05-15T20:35:10.988Z,53.52
2023-05-15T20:37:37.566Z,54.15
2023-05-15T20:40:04.688Z,54.52
2023-05-15T20:42:31.244Z,53.83
2023-05-15T20:44:57.835Z,53.71
2023-05-15T20:47:24.474Z,54.28
2023-05-15T20:49:52.533Z,54.72
2023-05-15T20:52:19.131Z,54.86
2023-05-15T20:54:48.570Z,55.32
2023-05-15T20:57:15.141Z,55.37
2023-05-15T20:59:41.731Z,54.66
2023-05-15T21:02:08.286Z,54.38
2023-05-15T21:04:34.866Z,54.86
2023-05-15T21:07:01.431Z,54.53
2023-05-15T21:09:28.318Z,55.03
2023-05-15T21:11:54.891Z,55.45
2023-05-15T21:14:21.726Z,55.38
2023-05-15T21:16:48.345Z,56.40
2023-05-15T21:19:15.062Z,56.20
2023-05-15T21:21:42.007Z,56.26
2023-05-15T21:24:08.578Z,57.05
2023-05-15T21:26:35.166Z,56.80
2023-05-15T21:29:01.718Z,57.60
2023-05-15T21:31:29.078Z,58.09
2023-05-15T21:33:55.770Z,58.62
2023-05-15T21:36:22.322Z,58.30
2023-05-15T21:38:49.028Z,58.05
2023-05-15T21:41:15.617Z,58.14
2023-05-15T21:43:42.191Z,58.25
2023-05-15T21:46:08.880Z,58.16
2023-05-15T21:48:35.560Z,57.96
2023-05-15T21:51:02.191Z,57.82
2023-05-15T21:53:28.768Z,57.63
2023-05-15T21:55:55.349Z,57.85
2023-05-15T21:58:22.245Z,57.48
2023-05-15T22:00:48.802Z,57.36
2023-05-15T22:03:15.474Z,57.18
2023-05-15T22:05:42.153Z,56.75
2023-05-15T22:08:08.732Z,56.95
2023-05-15T22:10:35.346Z,57.25
2023-05-15T22:13:01.910Z,57.01
2023-05-15T22:15:28.672Z,56.98
2023-05-15T22:17:55.241Z,57.60
2023-05-15T22:20:21.939Z,57.70
2023-05-15T22:22:48.526Z,57.65
2023-05-15T22:25:15.089Z,57.87
2023-05-15T22:27:41.686Z,58.38
2023-05-15T22:30:10.817Z,57.72
2023-05-15T22:32:37.856Z,57.00
2023-05-15T22:35:04.486Z,56.57
2023-05-15T22:37:31.033Z,56.35
2023-05-15T22:39:57.623Z,56.37
2023-05-15T22:42:24.190Z,56.17
2023-05-15T22:44:50.797Z,56.48
2023-05-15T22:47:19.853Z,56.37
2023-05-15T22:49:46.479Z,56.80
2023-05-15T22:52:14.093Z,57.15
2023-05-15T22:54:42.907Z,57.09
2023-05-15T22:57:10.537Z,57.39
2023-05-15T22:59:37.796Z,57.40
2023-05-15T23:02:04.408Z,57.11
2023-05-15T23:04:31.012Z,56.68
2023-05-15T23:06:57.563Z,56.48
2023-05-15T23:09:24.144Z,56.77
2023-05-15T23:11:50.692Z,55.45
2023-05-15T23:14:17.284Z,55.66
2023-05-15T23:16:44.688Z,55.76
2023-05-15T23:19:11.382Z,56.07
2023-05-15T23:21:37.963Z,55.74
2023-05-15T23:24:06.208Z,55.67
2023-05-15T23:26:32.820Z,55.79
2023-05-15T23:28:59.507Z,56.30
2023-05-15T23:31:26.386Z,56.35
2023-05-15T23:33:52.990Z,56.06
2023-05-15T23:36:19.575Z,55.87
2023-05-15T23:38:46.150Z,56.33
2023-05-15T23:41:13.185Z,55.49
2023-05-15T23:43:39.746Z,56.72
2023-05-15T23:46:06.409Z,58.88
2023-05-15T23:48:33.023Z,58.18
2023-05-15T23:50:59.620Z,57.41
2023-05-15T23:53:26.270Z,57.08
2023-05-15T23:55:52.826Z,57.13
2023-05-15T23:58:19.418Z,56.43
